sensor_id;sensor_type;location;lat;lon;timestamp;P1;durP1;ratioP1;P2;durP2;ratioP2
6007;SDS011;3032;49.484;11.112;2022-08-23T00:01:18;8.07;;;7.10;;
6007;SDS011;3032;49.484;11.112;2022-08-23T00:03:46;8.45;;;7.75;;
6007;SDS011;3032;49.484;11.112;2022-08-23T00:06:12;7.82;;;7.20;;
6007;SDS011;3032;49.484;11.112;2022-08-23T00:08:38;11.65;;;8.55;;
6007;SDS011;3032;49.484;11.112;2022-08-23T00:11:04;9.43;;;8.47;;
6007;SDS011;3032;49.484;11.112;2022-08-23T00:13:31;9.43;;;8.55;;
6007;SDS011;3032;49.484;11.112;2022-08-23T00:15:57;10.85;;;9.55;;
6007;SDS011;3032;49.484;11.112;2022-08-23T00:18:23;11.27;;;8.40;;
6007;SDS011;3032;49.484;11.112;2022-08-23T00:20:49;9.53;;;8.73;;
6007;SDS011;3032;49.484;11.112;2022-08-23T00:23:15;11.15;;;8.40;;
6007;SDS011;3032;49.484;11.112;2022-08-23T00:25:41;8.85;;;8.05;;
6007;SDS011;3032;49.484;11.112;2022-08-23T00:28:07;9.63;;;8.70;;
6007;SDS011;3032;49.484;11.112;2022-08-23T00:30:33;12.73;;;9.43;;
6007;SDS011;3032;49.484;11.112;2022-08-23T00:32:59;10.35;;;9.35;;
6007;SDS011;3032;49.484;11.112;2022-08-23T00:35:24;12.20;;;10.33;;
6007;SDS011;3032;49.484;11.112;2022-08-23T00:37:50;14.20;;;9.00;;
6007;SDS011;3032;49.484;11.112;2022-08-23T00:40:16;10.67;;;9.77;;
6007;SDS011;3032;49.484;11.112;2022-08-23T00:42:53;10.43;;;9.30;;
6007;SDS011;3032;49.484;11.112;2022-08-23T00:45:45;12.98;;;9.68;;
6007;SDS011;3032;49.484;11.112;2022-08-23T00:48:43;11.30;;;9.75;;
6007;SDS011;3032;49.484;11.112;2022-08-23T00:53:44;10.50;;;9.50;;
6007;SDS011;3032;49.484;11.112;2022-08-23T00:56:14;11.50;;;10.40;;
6007;SDS011;3032;49.484;11.112;2022-08-23T00:58:41;12.50;;;9.27;;
6007;SDS011;3032;49.484;11.112;2022-08-23T01:01:07;13.50;;;9.97;;
6007;SDS011;3032;49.484;11.112;2022-08-23T01:03:34;12.00;;;10.80;;
6007;SDS011;3032;49.484;11.112;2022-08-23T01:08:33;12.32;;;11.23;;
6007;SDS011;3032;49.484;11.112;2022-08-23T01:11:10;9.20;;;8.30;;
6007;SDS011;3032;49.484;11.112;2022-08-23T01:13:46;11.13;;;10.07;;
6007;SDS011;3032;49.484;11.112;2022-08-23T01:16:25;13.60;;;10.02;;
6007;SDS011;3032;49.484;11.112;2022-08-23T01:19:01;11.93;;;9.80;;
6007;SDS011;3032;49.484;11.112;2022-08-23T01:21:36;13.20;;;9.55;;
6007;SDS011;3032;49.484;11.112;2022-08-23T01:24:09;10.43;;;9.50;;
6007;SDS011;3032;49.484;11.112;2022-08-23T01:26:36;10.40;;;9.40;;
6007;SDS011;3032;49.484;11.112;2022-08-23T01:29:03;11.95;;;10.30;;
6007;SDS011;3032;49.484;11.112;2022-08-23T01:31:30;12.27;;;9.45;;
6007;SDS011;3032;49.484;11.112;2022-08-23T01:33:58;10.70;;;9.60;;
6007;SDS011;3032;49.484;11.112;2022-08-23T01:36:26;11.48;;;10.38;;
6007;SDS011;3032;49.484;11.112;2022-08-23T01:38:53;14.30;;;10.68;;
6007;SDS011;3032;49.484;11.112;2022-08-23T01:41:19;11.90;;;10.70;;
6007;SDS011;3032;49.484;11.112;2022-08-23T01:43:45;19.63;;;11.03;;
6007;SDS011;3032;49.484;11.112;2022-08-23T01:46:12;13.67;;;10.23;;
6007;SDS011;3032;49.484;11.112;2022-08-23T01:48:41;11.70;;;10.60;;
6007;SDS011;3032;49.484;11.112;2022-08-23T01:51:09;11.65;;;10.38;;
6007;SDS011;3032;49.484;11.112;2022-08-23T01:53:35;14.75;;;10.57;;
6007;SDS011;3032;49.484;11.112;2022-08-23T01:56:01;14.13;;;9.90;;
6007;SDS011;3032;49.484;11.112;2022-08-23T01:58:29;12.10;;;10.63;;
6007;SDS011;3032;49.484;11.112;2022-08-23T02:00:56;12.63;;;11.23;;
6007;SDS011;3032;49.484;11.112;2022-08-23T02:03:22;10.70;;;9.70;;
6007;SDS011;3032;49.484;11.112;2022-08-23T02:05:47;11.07;;;9.97;;
6007;SDS011;3032;49.484;11.112;2022-08-23T02:08:13;11.33;;;10.23;;
6007;SDS011;3032;49.484;11.112;2022-08-23T02:10:57;11.82;;;9.55;;
6007;SDS011;3032;49.484;11.112;2022-08-23T02:13:23;10.50;;;9.50;;
6007;SDS011;3032;49.484;11.112;2022-08-23T02:15:49;10.90;;;9.83;;
6007;SDS011;3032;49.484;11.112;2022-08-23T02:18:17;11.57;;;10.38;;
6007;SDS011;3032;49.484;11.112;2022-08-23T02:20:45;10.68;;;9.60;;
6007;SDS011;3032;49.484;11.112;2022-08-23T02:23:12;11.40;;;10.48;;
6007;SDS011;3032;49.484;11.112;2022-08-23T02:25:38;11.53;;;10.37;;
6007;SDS011;3032;49.484;11.112;2022-08-23T02:28:04;11.77;;;10.68;;
6007;SDS011;3032;49.484;11.112;2022-08-23T02:30:30;11.50;;;10.52;;
6007;SDS011;3032;49.484;11.112;2022-08-23T02:32:56;13.03;;;11.63;;
6007;SDS011;3032;49.484;11.112;2022-08-23T02:35:22;12.30;;;11.20;;
6007;SDS011;3032;49.484;11.112;2022-08-23T02:37:48;11.55;;;9.70;;
6007;SDS011;3032;49.484;11.112;2022-08-23T02:40:14;13.15;;;11.23;;
6007;SDS011;3032;49.484;11.112;2022-08-23T02:42:40;12.48;;;11.15;;
6007;SDS011;3032;49.484;11.112;2022-08-23T02:45:06;12.50;;;11.20;;
6007;SDS011;3032;49.484;11.112;2022-08-23T02:47:33;12.85;;;11.65;;
6007;SDS011;3032;49.484;11.112;2022-08-23T02:50:01;13.07;;;11.27;;
6007;SDS011;3032;49.484;11.112;2022-08-23T02:52:31;12.55;;;11.35;;
6007;SDS011;3032;49.484;11.112;2022-08-23T02:54:56;12.27;;;11.20;;
6007;SDS011;3032;49.484;11.112;2022-08-23T02:57:22;13.57;;;12.30;;
6007;SDS011;3032;49.484;11.112;2022-08-23T02:59:48;13.40;;;12.10;;
6007;SDS011;3032;49.484;11.112;2022-08-23T03:02:14;13.02;;;11.77;;
6007;SDS011;3032;49.484;11.112;2022-08-23T03:04:40;15.40;;;13.20;;
6007;SDS011;3032;49.484;11.112;2022-08-23T03:07:06;13.60;;;12.30;;
6007;SDS011;3032;49.484;11.112;2022-08-23T03:09:31;13.60;;;12.40;;
6007;SDS011;3032;49.484;11.112;2022-08-23T03:11:57;12.83;;;11.53;;
6007;SDS011;3032;49.484;11.112;2022-08-23T03:14:23;15.80;;;13.60;;
6007;SDS011;3032;49.484;11.112;2022-08-23T03:16:49;14.45;;;11.23;;
6007;SDS011;3032;49.484;11.112;2022-08-23T03:19:15;17.63;;;13.13;;
6007;SDS011;3032;49.484;11.112;2022-08-23T03:21:40;12.87;;;11.77;;
6007;SDS011;3032;49.484;11.112;2022-08-23T03:24:07;14.10;;;12.60;;
6007;SDS011;3032;49.484;11.112;2022-08-23T03:26:33;14.20;;;12.70;;
6007;SDS011;3032;49.484;11.112;2022-08-23T03:28:59;14.35;;;12.00;;
6007;SDS011;3032;49.484;11.112;2022-08-23T03:31:25;13.88;;;11.80;;
6007;SDS011;3032;49.484;11.112;2022-08-23T03:33:51;15.17;;;13.00;;
6007;SDS011;3032;49.484;11.112;2022-08-23T03:36:17;13.47;;;12.17;;
6007;SDS011;3032;49.484;11.112;2022-08-23T03:38:43;13.40;;;11.43;;
6007;SDS011;3032;49.484;11.112;2022-08-23T03:41:09;12.77;;;11.47;;
6007;SDS011;3032;49.484;11.112;2022-08-23T03:43:35;12.80;;;11.40;;
6007;SDS011;3032;49.484;11.112;2022-08-23T03:46:01;16.60;;;11.65;;
6007;SDS011;3032;49.484;11.112;2022-08-23T03:48:28;13.13;;;11.82;;
6007;SDS011;3032;49.484;11.112;2022-08-23T03:50:53;14.97;;;12.67;;
6007;SDS011;3032;49.484;11.112;2022-08-23T03:53:19;12.93;;;11.53;;
6007;SDS011;3032;49.484;11.112;2022-08-23T03:55:45;12.38;;;11.13;;
6007;SDS011;3032;49.484;11.112;2022-08-23T03:58:11;12.70;;;11.40;;
6007;SDS011;3032;49.484;11.112;2022-08-23T04:00:37;12.67;;;11.43;;
6007;SDS011;3032;49.484;11.112;2022-08-23T04:03:03;14.40;;;12.68;;
6007;SDS011;3032;49.484;11.112;2022-08-23T04:05:28;15.47;;;12.83;;
6007;SDS011;3032;49.484;11.112;2022-08-23T04:07:54;11.77;;;10.67;;
6007;SDS011;3032;49.484;11.112;2022-08-23T04:10:20;13.07;;;11.63;;
6007;SDS011;3032;49.484;11.112;2022-08-23T04:12:46;13.23;;;11.93;;
6007;SDS011;3032;49.484;11.112;2022-08-23T04:15:11;13.83;;;10.10;;
6007;SDS011;3032;49.484;11.112;2022-08-23T04:17:37;15.67;;;12.20;;
6007;SDS011;3032;49.484;11.112;2022-08-23T04:20:04;12.02;;;10.88;;
6007;SDS011;3032;49.484;11.112;2022-08-23T04:22:30;15.15;;;12.65;;
6007;SDS011;3032;49.484;11.112;2022-08-23T04:24:57;14.15;;;12.75;;
6007;SDS011;3032;49.484;11.112;2022-08-23T04:27:23;17.67;;;13.25;;
6007;SDS011;3032;49.484;11.112;2022-08-23T04:29:49;13.40;;;11.90;;
6007;SDS011;3032;49.484;11.112;2022-08-23T04:32:14;13.63;;;12.33;;
6007;SDS011;3032;49.484;11.112;2022-08-23T04:34:42;13.00;;;11.60;;
6007;SDS011;3032;49.484;11.112;2022-08-23T04:37:08;16.57;;;13.00;;
6007;SDS011;3032;49.484;11.112;2022-08-23T04:39:34;17.40;;;13.10;;
6007;SDS011;3032;49.484;11.112;2022-08-23T04:42:19;13.55;;;12.00;;
6007;SDS011;3032;49.484;11.112;2022-08-23T04:44:47;16.58;;;13.52;;
6007;SDS011;3032;49.484;11.112;2022-08-23T04:47:13;13.55;;;12.18;;
6007;SDS011;3032;49.484;11.112;2022-08-23T04:49:39;14.30;;;13.00;;
6007;SDS011;3032;49.484;11.112;2022-08-23T04:52:04;12.60;;;8.90;;
6007;SDS011;3032;49.484;11.112;2022-08-23T04:54:30;12.23;;;11.03;;
6007;SDS011;3032;49.484;11.112;2022-08-23T04:56:56;10.87;;;9.80;;
6007;SDS011;3032;49.484;11.112;2022-08-23T04:59:21;12.23;;;10.83;;
6007;SDS011;3032;49.484;11.112;2022-08-23T05:01:48;9.57;;;8.63;;
6007;SDS011;3032;49.484;11.112;2022-08-23T05:04:15;11.57;;;10.40;;
6007;SDS011;3032;49.484;11.112;2022-08-23T05:06:41;13.48;;;10.15;;
6007;SDS011;3032;49.484;11.112;2022-08-23T05:09:07;12.33;;;11.00;;
6007;SDS011;3032;49.484;11.112;2022-08-23T05:11:33;14.83;;;11.03;;
6007;SDS011;3032;49.484;11.112;2022-08-23T05:13:59;10.53;;;9.57;;
6007;SDS011;3032;49.484;11.112;2022-08-23T05:16:24;10.30;;;9.30;;
6007;SDS011;3032;49.484;11.112;2022-08-23T05:18:50;10.37;;;9.03;;
6007;SDS011;3032;49.484;11.112;2022-08-23T05:21:17;9.03;;;8.33;;
6007;SDS011;3032;49.484;11.112;2022-08-23T05:23:45;9.00;;;8.13;;
6007;SDS011;3032;49.484;11.112;2022-08-23T05:26:11;7.88;;;7.00;;
6007;SDS011;3032;49.484;11.112;2022-08-23T05:28:40;7.07;;;6.47;;
6007;SDS011;3032;49.484;11.112;2022-08-23T05:33:44;7.95;;;7.22;;
6007;SDS011;3032;49.484;11.112;2022-08-23T05:36:11;6.97;;;6.38;;
6007;SDS011;3032;49.484;11.112;2022-08-23T05:38:38;12.55;;;6.45;;
6007;SDS011;3032;49.484;11.112;2022-08-23T05:41:04;7.38;;;6.28;;
6007;SDS011;3032;49.484;11.112;2022-08-23T05:43:30;6.53;;;5.95;;
6007;SDS011;3032;49.484;11.112;2022-08-23T05:46:07;6.67;;;5.70;;
6007;SDS011;3032;49.484;11.112;2022-08-23T05:48:35;7.40;;;6.80;;
6007;SDS011;3032;49.484;11.112;2022-08-23T05:53:50;7.60;;;6.90;;
6007;SDS011;3032;49.484;11.112;2022-08-23T05:56:23;12.13;;;6.70;;
6007;SDS011;3032;49.484;11.112;2022-08-23T05:58:55;6.97;;;6.38;;
6007;SDS011;3032;49.484;11.112;2022-08-23T06:01:25;7.50;;;6.40;;
6007;SDS011;3032;49.484;11.112;2022-08-23T06:03:52;6.80;;;6.10;;
6007;SDS011;3032;49.484;11.112;2022-08-23T06:06:18;6.23;;;5.63;;
6007;SDS011;3032;49.484;11.112;2022-08-23T06:08:44;6.40;;;5.80;;
6007;SDS011;3032;49.484;11.112;2022-08-23T06:11:13;6.05;;;5.35;;
6007;SDS011;3032;49.484;11.112;2022-08-23T06:13:47;4.82;;;4.43;;
6007;SDS011;3032;49.484;11.112;2022-08-23T06:16:26;7.45;;;5.57;;
6007;SDS011;3032;49.484;11.112;2022-08-23T06:18:55;7.10;;;5.45;;
6007;SDS011;3032;49.484;11.112;2022-08-23T06:21:21;7.13;;;6.28;;
6007;SDS011;3032;49.484;11.112;2022-08-23T06:23:49;6.03;;;5.20;;
6007;SDS011;3032;49.484;11.112;2022-08-23T06:26:20;5.60;;;5.07;;
6007;SDS011;3032;49.484;11.112;2022-08-23T06:28:48;5.20;;;4.75;;
6007;SDS011;3032;49.484;11.112;2022-08-23T06:31:16;7.00;;;5.22;;
6007;SDS011;3032;49.484;11.112;2022-08-23T06:34:02;7.75;;;5.18;;
6007;SDS011;3032;49.484;11.112;2022-08-23T06:36:28;6.60;;;5.38;;
6007;SDS011;3032;49.484;11.112;2022-08-23T06:38:54;7.63;;;5.03;;
6007;SDS011;3032;49.484;11.112;2022-08-23T06:41:19;5.30;;;4.80;;
6007;SDS011;3032;49.484;11.112;2022-08-23T06:43:45;4.53;;;4.13;;
6007;SDS011;3032;49.484;11.112;2022-08-23T06:48:38;4.72;;;4.30;;
6007;SDS011;3032;49.484;11.112;2022-08-23T06:53:53;5.38;;;3.40;;
6007;SDS011;3032;49.484;11.112;2022-08-23T06:56:21;4.22;;;3.20;;
6007;SDS011;3032;49.484;11.112;2022-08-23T06:58:47;4.15;;;3.75;;
6007;SDS011;3032;49.484;11.112;2022-08-23T07:04:03;3.92;;;3.55;;
6007;SDS011;3032;49.484;11.112;2022-08-23T07:06:30;4.55;;;3.85;;
6007;SDS011;3032;49.484;11.112;2022-08-23T07:08:56;3.85;;;3.55;;
6007;SDS011;3032;49.484;11.112;2022-08-23T07:11:25;5.78;;;3.72;;
6007;SDS011;3032;49.484;11.112;2022-08-23T07:13:53;3.85;;;3.10;;
6007;SDS011;3032;49.484;11.112;2022-08-23T07:16:19;4.28;;;3.20;;
6007;SDS011;3032;49.484;11.112;2022-08-23T07:18:45;3.27;;;3.07;;
6007;SDS011;3032;49.484;11.112;2022-08-23T07:21:13;3.28;;;2.97;;
6007;SDS011;3032;49.484;11.112;2022-08-23T07:23:40;3.70;;;3.50;;
6007;SDS011;3032;49.484;11.112;2022-08-23T07:26:08;4.07;;;3.75;;
6007;SDS011;3032;49.484;11.112;2022-08-23T07:28:36;3.00;;;2.80;;
6007;SDS011;3032;49.484;11.112;2022-08-23T07:33:40;3.20;;;3.00;;
6007;SDS011;3032;49.484;11.112;2022-08-23T07:36:07;5.55;;;3.15;;
6007;SDS011;3032;49.484;11.112;2022-08-23T07:38:34;2.63;;;2.53;;
6007;SDS011;3032;49.484;11.112;2022-08-23T07:41:00;3.60;;;2.85;;
6007;SDS011;3032;49.484;11.112;2022-08-23T07:43:27;4.57;;;2.50;;
6007;SDS011;3032;49.484;11.112;2022-08-23T07:45:54;2.88;;;2.67;;
6007;SDS011;3032;49.484;11.112;2022-08-23T07:48:19;3.27;;;2.80;;
6007;SDS011;3032;49.484;11.112;2022-08-23T07:50:52;3.43;;;3.13;;
6007;SDS011;3032;49.484;11.112;2022-08-23T07:53:18;2.60;;;2.40;;
6007;SDS011;3032;49.484;11.112;2022-08-23T07:55:44;3.40;;;2.63;;
6007;SDS011;3032;49.484;11.112;2022-08-23T07:58:10;3.77;;;2.70;;
6007;SDS011;3032;49.484;11.112;2022-08-23T08:00:36;4.95;;;2.97;;
6007;SDS011;3032;49.484;11.112;2022-08-23T08:03:01;3.10;;;2.73;;
6007;SDS011;3032;49.484;11.112;2022-08-23T08:05:27;2.27;;;2.17;;
6007;SDS011;3032;49.484;11.112;2022-08-23T08:07:56;2.28;;;2.10;;
6007;SDS011;3032;49.484;11.112;2022-08-23T08:10:22;2.07;;;1.87;;
6007;SDS011;3032;49.484;11.112;2022-08-23T08:12:47;3.27;;;2.40;;
6007;SDS011;3032;49.484;11.112;2022-08-23T08:15:14;2.50;;;2.30;;
6007;SDS011;3032;49.484;11.112;2022-08-23T08:17:40;3.10;;;2.05;;
6007;SDS011;3032;49.484;11.112;2022-08-23T08:20:05;2.67;;;2.57;;
6007;SDS011;3032;49.484;11.112;2022-08-23T08:22:32;4.18;;;2.63;;
6007;SDS011;3032;49.484;11.112;2022-08-23T08:24:57;2.60;;;2.40;;
6007;SDS011;3032;49.484;11.112;2022-08-23T08:27:23;1.90;;;1.80;;
6007;SDS011;3032;49.484;11.112;2022-08-23T08:29:49;2.27;;;2.00;;
6007;SDS011;3032;49.484;11.112;2022-08-23T08:32:16;1.63;;;1.53;;
6007;SDS011;3032;49.484;11.112;2022-08-23T08:34:41;1.83;;;1.53;;
6007;SDS011;3032;49.484;11.112;2022-08-23T08:37:07;1.73;;;1.63;;
6007;SDS011;3032;49.484;11.112;2022-08-23T08:39:33;2.50;;;1.40;;
6007;SDS011;3032;49.484;11.112;2022-08-23T08:47:20;1.30;;;1.27;;
6007;SDS011;3032;49.484;11.112;2022-08-23T08:52:26;5.30;;;1.70;;
6007;SDS011;3032;49.484;11.112;2022-08-23T08:55:05;1.20;;;1.20;;
6007;SDS011;3032;49.484;11.112;2022-08-23T08:57:42;2.05;;;1.50;;
6007;SDS011;3032;49.484;11.112;2022-08-23T09:00:13;2.63;;;1.30;;
6007;SDS011;3032;49.484;11.112;2022-08-23T09:02:39;1.45;;;1.35;;
6007;SDS011;3032;49.484;11.112;2022-08-23T09:05:10;1.33;;;1.23;;
6007;SDS011;3032;49.484;11.112;2022-08-23T09:08:07;1.10;;;1.10;;
6007;SDS011;3032;49.484;11.112;2022-08-23T09:13:42;1.83;;;1.13;;
6007;SDS011;3032;49.484;11.112;2022-08-23T09:18:55;1.90;;;1.35;;
6007;SDS011;3032;49.484;11.112;2022-08-23T09:21:21;5.50;;;1.55;;
6007;SDS011;3032;49.484;11.112;2022-08-23T09:23:48;1.30;;;1.20;;
6007;SDS011;3032;49.484;11.112;2022-08-23T09:26:23;2.33;;;1.50;;
6007;SDS011;3032;49.484;11.112;2022-08-23T09:28:51;1.10;;;1.00;;
6007;SDS011;3032;49.484;11.112;2022-08-23T09:34:08;1.40;;;1.27;;
6007;SDS011;3032;49.484;11.112;2022-08-23T09:36:37;1.13;;;1.13;;
6007;SDS011;3032;49.484;11.112;2022-08-23T09:39:05;1.17;;;1.10;;
6007;SDS011;3032;49.484;11.112;2022-08-23T09:41:46;1.17;;;1.10;;
6007;SDS011;3032;49.484;11.112;2022-08-23T09:44:13;1.40;;;1.23;;
6007;SDS011;3032;49.484;11.112;2022-08-23T09:47:03;1.47;;;1.13;;
6007;SDS011;3032;49.484;11.112;2022-08-23T09:49:31;0.93;;;0.93;;
6007;SDS011;3032;49.484;11.112;2022-08-23T09:52:08;0.93;;;0.90;;
6007;SDS011;3032;49.484;11.112;2022-08-23T09:54:58;1.00;;;1.00;;
6007;SDS011;3032;49.484;11.112;2022-08-23T09:57:33;1.43;;;1.10;;
6007;SDS011;3032;49.484;11.112;2022-08-23T10:00:45;2.63;;;1.00;;
6007;SDS011;3032;49.484;11.112;2022-08-23T10:05:43;1.60;;;1.10;;
6007;SDS011;3032;49.484;11.112;2022-08-23T10:08:23;2.33;;;1.30;;
6007;SDS011;3032;49.484;11.112;2022-08-23T10:10:52;1.23;;;1.23;;
6007;SDS011;3032;49.484;11.112;2022-08-23T10:13:22;1.53;;;1.13;;
6007;SDS011;3032;49.484;11.112;2022-08-23T10:18:45;0.90;;;0.90;;
6007;SDS011;3032;49.484;11.112;2022-08-23T10:21:45;1.03;;;1.00;;
6007;SDS011;3032;49.484;11.112;2022-08-23T10:27:46;0.87;;;0.87;;
6007;SDS011;3032;49.484;11.112;2022-08-23T10:31:00;1.80;;;0.90;;
6007;SDS011;3032;49.484;11.112;2022-08-23T10:36:22;1.23;;;0.83;;
6007;SDS011;3032;49.484;11.112;2022-08-23T10:38:56;1.07;;;1.07;;
6007;SDS011;3032;49.484;11.112;2022-08-23T10:49:32;1.13;;;1.07;;
6007;SDS011;3032;49.484;11.112;2022-08-23T10:52:01;0.80;;;0.80;;
6007;SDS011;3032;49.484;11.112;2022-08-23T10:54:32;0.90;;;0.90;;
6007;SDS011;3032;49.484;11.112;2022-08-23T10:57:10;0.90;;;0.90;;
6007;SDS011;3032;49.484;11.112;2022-08-23T10:59:45;1.20;;;1.20;;
6007;SDS011;3032;49.484;11.112;2022-08-23T11:05:25;0.80;;;0.80;;
6007;SDS011;3032;49.484;11.112;2022-08-23T11:08:03;1.10;;;1.00;;
6007;SDS011;3032;49.484;11.112;2022-08-23T11:10:39;1.10;;;1.00;;
6007;SDS011;3032;49.484;11.112;2022-08-23T11:18:48;1.10;;;1.00;;
6007;SDS011;3032;49.484;11.112;2022-08-23T11:23:53;1.10;;;1.10;;
6007;SDS011;3032;49.484;11.112;2022-08-23T11:31:32;0.93;;;0.93;;
6007;SDS011;3032;49.484;11.112;2022-08-23T11:42:24;0.80;;;0.80;;
6007;SDS011;3032;49.484;11.112;2022-08-23T11:44:53;1.00;;;0.70;;
6007;SDS011;3032;49.484;11.112;2022-08-23T11:47:28;1.43;;;1.00;;
6007;SDS011;3032;49.484;11.112;2022-08-23T11:58:27;0.80;;;0.80;;
6007;SDS011;3032;49.484;11.112;2022-08-23T12:01:08;0.90;;;0.90;;
6007;SDS011;3032;49.484;11.112;2022-08-23T12:03:51;0.98;;;0.98;;
6007;SDS011;3032;49.484;11.112;2022-08-23T12:11:20;1.00;;;1.00;;
6007;SDS011;3032;49.484;11.112;2022-08-23T12:13:56;1.85;;;1.23;;
6007;SDS011;3032;49.484;11.112;2022-08-23T12:16:29;1.00;;;1.00;;
6007;SDS011;3032;49.484;11.112;2022-08-23T12:19:02;1.65;;;1.00;;
6007;SDS011;3032;49.484;11.112;2022-08-23T12:21:45;1.20;;;1.10;;
6007;SDS011;3032;49.484;11.112;2022-08-23T12:26:46;1.20;;;1.00;;
6007;SDS011;3032;49.484;11.112;2022-08-23T12:29:18;0.93;;;0.93;;
6007;SDS011;3032;49.484;11.112;2022-08-23T12:31:55;1.20;;;1.10;;
6007;SDS011;3032;49.484;11.112;2022-08-23T12:34:59;2.63;;;1.10;;
6007;SDS011;3032;49.484;11.112;2022-08-23T12:40:27;1.00;;;1.00;;
6007;SDS011;3032;49.484;11.112;2022-08-23T12:45:49;1.10;;;1.10;;
6007;SDS011;3032;49.484;11.112;2022-08-23T12:48:21;1.30;;;1.20;;
6007;SDS011;3032;49.484;11.112;2022-08-23T12:50:56;1.00;;;1.00;;
6007;SDS011;3032;49.484;11.112;2022-08-23T12:53:29;1.27;;;1.17;;
6007;SDS011;3032;49.484;11.112;2022-08-23T12:56:07;1.20;;;1.20;;
6007;SDS011;3032;49.484;11.112;2022-08-23T12:58:39;1.67;;;1.20;;
6007;SDS011;3032;49.484;11.112;2022-08-23T13:01:19;1.67;;;1.23;;
6007;SDS011;3032;49.484;11.112;2022-08-23T13:03:46;1.00;;;1.00;;
6007;SDS011;3032;49.484;11.112;2022-08-23T13:06:18;1.27;;;1.27;;
6007;SDS011;3032;49.484;11.112;2022-08-23T13:11:26;1.20;;;1.10;;
6007;SDS011;3032;49.484;11.112;2022-08-23T13:13:55;1.20;;;1.08;;
6007;SDS011;3032;49.484;11.112;2022-08-23T13:18:49;1.08;;;0.90;;
6007;SDS011;3032;49.484;11.112;2022-08-23T13:23:47;0.90;;;0.90;;
6007;SDS011;3032;49.484;11.112;2022-08-23T13:31:59;4.05;;;1.45;;
6007;SDS011;3032;49.484;11.112;2022-08-23T13:36:59;0.90;;;0.90;;
6007;SDS011;3032;49.484;11.112;2022-08-23T13:39:27;2.83;;;1.08;;
6007;SDS011;3032;49.484;11.112;2022-08-23T13:41:56;1.45;;;1.00;;
6007;SDS011;3032;49.484;11.112;2022-08-23T13:44:21;1.03;;;1.00;;
6007;SDS011;3032;49.484;11.112;2022-08-23T13:46:48;1.23;;;1.08;;
6007;SDS011;3032;49.484;11.112;2022-08-23T13:49:15;0.90;;;0.90;;
6007;SDS011;3032;49.484;11.112;2022-08-23T13:54:25;4.43;;;1.13;;
6007;SDS011;3032;49.484;11.112;2022-08-23T13:56:53;0.93;;;0.93;;
6007;SDS011;3032;49.484;11.112;2022-08-23T13:59:23;1.65;;;1.10;;
6007;SDS011;3032;49.484;11.112;2022-08-23T14:01:52;1.30;;;1.30;;
6007;SDS011;3032;49.484;11.112;2022-08-23T14:04:18;1.88;;;0.98;;
6007;SDS011;3032;49.484;11.112;2022-08-23T14:06:43;2.40;;;1.20;;
6007;SDS011;3032;49.484;11.112;2022-08-23T14:09:10;2.28;;;1.02;;
6007;SDS011;3032;49.484;11.112;2022-08-23T14:11:36;1.05;;;1.00;;
6007;SDS011;3032;49.484;11.112;2022-08-23T14:14:02;1.77;;;1.20;;
6007;SDS011;3032;49.484;11.112;2022-08-23T14:16:29;0.90;;;0.90;;
6007;SDS011;3032;49.484;11.112;2022-08-23T14:18:58;0.95;;;0.95;;
6007;SDS011;3032;49.484;11.112;2022-08-23T14:21:24;1.00;;;1.00;;
6007;SDS011;3032;49.484;11.112;2022-08-23T14:23:50;0.90;;;0.90;;
6007;SDS011;3032;49.484;11.112;2022-08-23T14:26:17;1.33;;;1.23;;
6007;SDS011;3032;49.484;11.112;2022-08-23T14:28:44;1.30;;;1.15;;
6007;SDS011;3032;49.484;11.112;2022-08-23T14:31:10;1.15;;;1.05;;
6007;SDS011;3032;49.484;11.112;2022-08-23T14:33:37;1.70;;;1.60;;
6007;SDS011;3032;49.484;11.112;2022-08-23T14:36:03;2.20;;;1.00;;
6007;SDS011;3032;49.484;11.112;2022-08-23T14:38:29;1.10;;;1.10;;
6007;SDS011;3032;49.484;11.112;2022-08-23T14:40:56;1.33;;;1.30;;
6007;SDS011;3032;49.484;11.112;2022-08-23T14:43:25;2.53;;;1.10;;
6007;SDS011;3032;49.484;11.112;2022-08-23T14:45:51;1.30;;;1.20;;
6007;SDS011;3032;49.484;11.112;2022-08-23T14:48:18;1.10;;;1.03;;
6007;SDS011;3032;49.484;11.112;2022-08-23T14:50:44;1.03;;;1.03;;
6007;SDS011;3032;49.484;11.112;2022-08-23T14:53:11;1.35;;;1.25;;
6007;SDS011;3032;49.484;11.112;2022-08-23T14:55:40;1.52;;;1.42;;
6007;SDS011;3032;49.484;11.112;2022-08-23T14:58:06;1.75;;;0.93;;
6007;SDS011;3032;49.484;11.112;2022-08-23T15:00:32;3.23;;;1.60;;
6007;SDS011;3032;49.484;11.112;2022-08-23T15:03:00;1.10;;;1.00;;
6007;SDS011;3032;49.484;11.112;2022-08-23T15:05:27;1.50;;;1.40;;
6007;SDS011;3032;49.484;11.112;2022-08-23T15:07:53;2.08;;;1.40;;
6007;SDS011;3032;49.484;11.112;2022-08-23T15:10:19;1.70;;;1.60;;
6007;SDS011;3032;49.484;11.112;2022-08-23T15:12:45;1.30;;;1.30;;
6007;SDS011;3032;49.484;11.112;2022-08-23T15:15:13;1.50;;;1.40;;
6007;SDS011;3032;49.484;11.112;2022-08-23T15:17:46;1.40;;;1.30;;
6007;SDS011;3032;49.484;11.112;2022-08-23T15:20:18;1.58;;;1.48;;
6007;SDS011;3032;49.484;11.112;2022-08-23T15:22:45;1.98;;;1.55;;
6007;SDS011;3032;49.484;11.112;2022-08-23T15:25:12;1.57;;;1.47;;
6007;SDS011;3032;49.484;11.112;2022-08-23T15:27:39;2.85;;;1.75;;
6007;SDS011;3032;49.484;11.112;2022-08-23T15:30:05;1.92;;;1.65;;
6007;SDS011;3032;49.484;11.112;2022-08-23T15:32:31;1.75;;;1.30;;
6007;SDS011;3032;49.484;11.112;2022-08-23T15:34:57;1.50;;;1.40;;
6007;SDS011;3032;49.484;11.112;2022-08-23T15:37:23;1.30;;;1.30;;
6007;SDS011;3032;49.484;11.112;2022-08-23T15:39:48;1.70;;;1.60;;
6007;SDS011;3032;49.484;11.112;2022-08-23T15:42:14;3.77;;;1.60;;
6007;SDS011;3032;49.484;11.112;2022-08-23T15:44:40;3.53;;;1.57;;
6007;SDS011;3032;49.484;11.112;2022-08-23T15:47:11;1.83;;;1.73;;
6007;SDS011;3032;49.484;11.112;2022-08-23T15:49:42;1.65;;;1.33;;
6007;SDS011;3032;49.484;11.112;2022-08-23T15:52:07;1.73;;;1.63;;
6007;SDS011;3032;49.484;11.112;2022-08-23T15:54:33;1.90;;;1.80;;
6007;SDS011;3032;49.484;11.112;2022-08-23T15:56:59;1.63;;;1.53;;
6007;SDS011;3032;49.484;11.112;2022-08-23T15:59:24;1.83;;;1.73;;
6007;SDS011;3032;49.484;11.112;2022-08-23T16:01:50;2.30;;;1.40;;
6007;SDS011;3032;49.484;11.112;2022-08-23T16:04:16;1.60;;;1.50;;
6007;SDS011;3032;49.484;11.112;2022-08-23T16:06:42;1.98;;;1.45;;
6007;SDS011;3032;49.484;11.112;2022-08-23T16:09:11;1.70;;;1.60;;
6007;SDS011;3032;49.484;11.112;2022-08-23T16:11:45;5.30;;;1.55;;
6007;SDS011;3032;49.484;11.112;2022-08-23T16:14:11;1.83;;;1.67;;
6007;SDS011;3032;49.484;11.112;2022-08-23T16:16:37;1.80;;;1.70;;
6007;SDS011;3032;49.484;11.112;2022-08-23T16:19:05;1.30;;;1.20;;
6007;SDS011;3032;49.484;11.112;2022-08-23T16:21:31;1.60;;;1.50;;
6007;SDS011;3032;49.484;11.112;2022-08-23T16:23:58;1.75;;;1.65;;
6007;SDS011;3032;49.484;11.112;2022-08-23T16:26:28;5.00;;;1.50;;
6007;SDS011;3032;49.484;11.112;2022-08-23T16:28:59;1.65;;;1.55;;
6007;SDS011;3032;49.484;11.112;2022-08-23T16:31:25;2.05;;;1.52;;
6007;SDS011;3032;49.484;11.112;2022-08-23T16:33:54;1.52;;;1.42;;
6007;SDS011;3032;49.484;11.112;2022-08-23T16:36:20;1.63;;;1.52;;
6007;SDS011;3032;49.484;11.112;2022-08-23T16:38:46;1.77;;;1.67;;
6007;SDS011;3032;49.484;11.112;2022-08-23T16:41:12;1.50;;;1.40;;
6007;SDS011;3032;49.484;11.112;2022-08-23T16:43:38;1.20;;;1.20;;
6007;SDS011;3032;49.484;11.112;2022-08-23T16:46:04;2.10;;;1.40;;
6007;SDS011;3032;49.484;11.112;2022-08-23T16:48:30;3.65;;;1.30;;
6007;SDS011;3032;49.484;11.112;2022-08-23T16:50:56;1.20;;;1.10;;
6007;SDS011;3032;49.484;11.112;2022-08-23T16:53:22;1.17;;;1.17;;
6007;SDS011;3032;49.484;11.112;2022-08-23T16:55:48;1.20;;;1.20;;
6007;SDS011;3032;49.484;11.112;2022-08-23T16:58:14;2.20;;;1.67;;
6007;SDS011;3032;49.484;11.112;2022-08-23T17:00:40;1.83;;;1.30;;
6007;SDS011;3032;49.484;11.112;2022-08-23T17:03:06;1.35;;;1.20;;
6007;SDS011;3032;49.484;11.112;2022-08-23T17:05:31;1.20;;;1.20;;